Lilongwe, Malawi
Current Conditions -  °F | °C
As of 9:00 PM on Saturday 22 Nov 2014 (Local Time) from FVHA Reporting Station
Clear Clear  
Wind Chill: 72°   Ceiling: Unl
Heat Index: 72°   Visibility: 6mi
Dew Point: 41°   Wind: 10mph
Humidity: 33%   Direction: 90°E
Pressure: 30.24"   Gusts: NA
Location:  13.97°S, 33.8°E
Report Text: FVHA 221900Z 09009KT CAVOK 22/05 Q1024 NOSIG
Loading
Personal Weather Stations






























Interactive Weather Map New forecast layout! Learn more

10-Day Weather Forecast

Advertisements
Track Severe Weather on mobile